createdAt,value
2023-01-06T00:01:13.761Z,101244.09
2023-01-06T00:03:40.233Z,101251.97
2023-01-06T00:06:09.426Z,101241.50
2023-01-06T00:08:36.723Z,101236.28
2023-01-06T00:11:08.053Z,101235.44
2023-01-06T00:13:34.703Z,101236.31
2023-01-06T00:16:09.267Z,101224.09
2023-01-06T00:18:36.101Z,101232.81
2023-01-06T00:21:03.378Z,101224.09
2023-01-06T00:23:30.116Z,101233.72
2023-01-06T00:25:56.617Z,101219.78
2023-01-06T00:28:23.186Z,101218.03
2023-01-06T00:30:49.690Z,101217.19
2023-01-06T00:33:16.220Z,101220.69
2023-01-06T00:35:42.733Z,101224.19
2023-01-06T00:38:09.577Z,101222.44
2023-01-06T00:40:37.272Z,101218.94
2023-01-06T00:43:04.578Z,101219.81
2023-01-06T00:45:31.535Z,101208.47
2023-01-06T00:47:57.952Z,101208.47
2023-01-06T00:50:24.636Z,101201.53
2023-01-06T00:52:51.310Z,101204.13
2023-01-06T00:55:17.788Z,101201.53
2023-01-06T00:57:44.221Z,101190.19
2023-01-06T01:00:11.393Z,101184.94
2023-01-06T01:02:37.903Z,101188.47
2023-01-06T01:05:04.769Z,101195.44
2023-01-06T01:07:31.212Z,101183.22
2023-01-06T01:09:57.649Z,101186.72
2023-01-06T01:12:24.072Z,101186.72
2023-01-06T01:14:53.503Z,101184.97
2023-01-06T01:17:28.526Z,101167.53
2023-01-06T01:19:57.683Z,101177.13
2023-01-06T01:22:26.570Z,101178.00
2023-01-06T01:24:53.066Z,101190.19
2023-01-06T01:27:20.020Z,101191.06
2023-01-06T01:29:46.523Z,101193.66
2023-01-06T01:32:12.945Z,101193.69
2023-01-06T01:34:39.734Z,101192.78
2023-01-06T01:37:06.249Z,101199.78
2023-01-06T01:39:32.684Z,101198.91
2023-01-06T01:42:00.034Z,101197.16
2023-01-06T01:45:02.552Z,101201.53
2023-01-06T01:47:32.250Z,101189.34
2023-01-06T01:50:14.612Z,101194.53
2023-01-06T01:52:45.260Z,101197.16
2023-01-06T01:55:13.354Z,101178.03
2023-01-06T01:57:47.103Z,101176.22
2023-01-06T02:00:13.852Z,101170.16
2023-01-06T02:02:42.320Z,101163.22
2023-01-06T02:05:11.154Z,101163.19
2023-01-06T02:07:37.681Z,101166.69
2023-01-06T02:10:18.226Z,101170.19
2023-01-06T02:12:47.139Z,101157.97
2023-01-06T02:15:16.365Z,101157.97
2023-01-06T02:17:53.226Z,101153.63
2023-01-06T02:20:40.695Z,101157.13
2023-01-06T02:23:16.312Z,101153.59
2023-01-06T02:26:13.898Z,101158.84
2023-01-06T02:29:14.267Z,101144.91
2023-01-06T02:32:02.260Z,101163.22
2023-01-06T02:35:13.268Z,101155.38
2023-01-06T02:37:57.950Z,101153.63
2023-01-06T02:40:44.381Z,101141.44
2023-01-06T02:43:18.683Z,101146.66
2023-01-06T02:46:02.905Z,101137.06
2023-01-06T02:48:47.548Z,101136.19
2023-01-06T02:51:24.942Z,101137.94
2023-01-06T02:54:29.952Z,101129.22
2023-01-06T02:57:17.799Z,101124.00
2023-01-06T03:00:03.583Z,101119.66
2023-01-06T03:02:32.066Z,101118.78
2023-01-06T03:05:01.503Z,101114.41
2023-01-06T03:07:29.473Z,101117.88
2023-01-06T03:09:58.691Z,101117.00
2023-01-06T03:12:35.331Z,101110.84
2023-01-06T03:15:01.991Z,101111.72
2023-01-06T03:17:28.633Z,101109.97
2023-01-06T03:19:55.330Z,101105.56
2023-01-06T03:22:23.346Z,101108.97
2023-01-06T03:24:50.043Z,101108.00
2023-01-06T03:27:19.911Z,101105.41
2023-01-06T03:29:46.535Z,101108.91
2023-01-06T03:32:23.264Z,101111.53
2023-01-06T03:34:58.793Z,101103.69
2023-01-06T03:38:01.159Z,101095.81
2023-01-06T03:40:37.916Z,101097.59
2023-01-06T03:43:49.510Z,101099.38
2023-01-06T03:46:25.048Z,101097.63
2023-01-06T03:49:05.489Z,101096.78
2023-01-06T03:51:44.284Z,101095.09
2023-01-06T03:54:17.277Z,101089.91
2023-01-06T03:56:51.338Z,101075.94
2023-01-06T03:59:23.017Z,101079.44
2023-01-06T04:01:49.931Z,101076.81
2023-01-06T04:04:18.088Z,101083.78
2023-01-06T04:06:45.013Z,101083.81
2023-01-06T04:09:11.436Z,101076.00
2023-01-06T04:11:56.652Z,101076.00
2023-01-06T04:14:23.118Z,101075.16
2023-01-06T04:16:49.549Z,101074.28
2023-01-06T04:19:16.143Z,101074.25
2023-01-06T04:21:42.562Z,101082.94
2023-01-06T04:24:09.129Z,101080.34
2023-01-06T04:26:38.704Z,101068.97
2023-01-06T04:29:05.304Z,101075.09
2023-01-06T04:31:32.968Z,101063.75
2023-01-06T04:34:01.085Z,101048.94
2023-01-06T04:36:27.561Z,101047.22
2023-01-06T04:38:53.996Z,101052.50
2023-01-06T04:41:20.752Z,101059.44
2023-01-06T04:43:47.220Z,101051.56
2023-01-06T04:46:13.680Z,101058.53
2023-01-06T04:48:40.200Z,101050.69
2023-01-06T04:51:08.717Z,101034.09
2023-01-06T04:53:40.628Z,101034.97
2023-01-06T04:56:09.564Z,101042.81
2023-01-06T04:58:37.201Z,101036.69
2023-01-06T05:01:10.735Z,101041.88
2023-01-06T05:03:37.955Z,101030.56
2023-01-06T05:06:10.643Z,101042.81
2023-01-06T05:08:38.954Z,101047.16
2023-01-06T05:11:08.753Z,101057.59
2023-01-06T05:13:36.133Z,101043.63
2023-01-06T05:16:07.678Z,101041.84
2023-01-06T05:18:34.231Z,101032.19
2023-01-06T05:21:00.657Z,101034.81
2023-01-06T05:23:27.271Z,101026.06
2023-01-06T05:25:54.104Z,101037.31
2023-01-06T05:28:21.133Z,101026.88
2023-01-06T05:30:47.694Z,101033.91
2023-01-06T05:33:14.384Z,101031.34
2023-01-06T05:35:41.220Z,101032.22
2023-01-06T05:38:07.814Z,101031.38
2023-01-06T05:40:35.444Z,101036.59
2023-01-06T05:43:01.924Z,101034.88
2023-01-06T05:45:28.448Z,101036.63
2023-01-06T05:47:54.881Z,101031.34
2023-01-06T05:50:21.336Z,101043.50
2023-01-06T05:52:47.802Z,101042.63
2023-01-06T05:55:14.263Z,101032.16
2023-01-06T05:57:40.741Z,101040.91
2023-01-06T06:00:08.386Z,101047.88
2023-01-06T06:02:34.920Z,101046.97
2023-01-06T06:05:01.404Z,101039.13
2023-01-06T06:07:27.865Z,101033.00
2023-01-06T06:09:54.314Z,101036.44
2023-01-06T06:12:20.725Z,101040.84
2023-01-06T06:14:47.125Z,101043.47
2023-01-06T06:17:13.614Z,101039.13
2023-01-06T06:19:40.057Z,101050.44
2023-01-06T06:22:08.045Z,101041.69
2023-01-06T06:24:35.676Z,101026.91
2023-01-06T06:27:02.116Z,101025.19
2023-01-06T06:29:28.595Z,101019.09
2023-01-06T06:31:55.049Z,101029.50
2023-01-06T06:34:21.473Z,101008.59
2023-01-06T06:36:47.904Z,101018.97
2023-01-06T06:39:14.349Z,101019.03
2023-01-06T06:41:40.842Z,101025.13
2023-01-06T06:44:07.493Z,101033.88
2023-01-06T06:46:33.950Z,101014.69
2023-01-06T06:49:00.409Z,101017.28
2023-01-06T06:51:26.962Z,101005.09
2023-01-06T06:53:53.429Z,100996.41
2023-01-06T06:56:20.823Z,100995.53
2023-01-06T06:58:47.474Z,101003.38
2023-01-06T07:01:19.225Z,101005.13
2023-01-06T07:03:46.018Z,101009.50
2023-01-06T07:06:24.764Z,101008.59
2023-01-06T07:08:52.049Z,101011.22
2023-01-06T07:11:18.558Z,101010.44
2023-01-06T07:13:45.085Z,100999.94
2023-01-06T07:16:12.277Z,101000.81
2023-01-06T07:18:39.360Z,101000.81
2023-01-06T07:21:06.677Z,100999.91
2023-01-06T07:23:33.548Z,101005.09
2023-01-06T07:26:01.448Z,100998.03
2023-01-06T07:28:29.316Z,101009.34
2023-01-06T07:30:55.986Z,101005.88
2023-01-06T07:33:23.007Z,101016.34
2023-01-06T07:35:56.091Z,101011.13
2023-01-06T07:38:22.981Z,101012.91
2023-01-06T07:40:49.846Z,101016.44
2023-01-06T07:43:17.139Z,101021.66
2023-01-06T07:45:45.858Z,101025.03
2023-01-06T07:48:12.321Z,101014.56
2023-01-06T07:50:38.799Z,101013.75
2023-01-06T07:53:05.322Z,101014.63
2023-01-06T07:55:31.788Z,101019.78
2023-01-06T07:58:01.404Z,101017.13
2023-01-06T08:00:27.829Z,101023.16
2023-01-06T08:02:54.430Z,101017.06
2023-01-06T08:05:21.036Z,101017.94
2023-01-06T08:07:47.495Z,101018.00
2023-01-06T08:10:13.984Z,101026.69
2023-01-06T08:12:40.515Z,101030.25
2023-01-06T08:15:07.566Z,101030.22
2023-01-06T08:17:34.117Z,101023.16
2023-01-06T08:20:00.569Z,101030.13
2023-01-06T08:22:27.100Z,101026.69
2023-01-06T08:24:53.635Z,101030.22
2023-01-06T08:27:20.770Z,101050.22
2023-01-06T08:29:47.961Z,101037.03
2023-01-06T08:32:14.447Z,101038.69
2023-01-06T08:34:40.880Z,101046.53
2023-01-06T08:37:07.404Z,101044.81
2023-01-06T08:39:33.987Z,101055.31
2023-01-06T08:42:00.519Z,101054.38
2023-01-06T08:44:26.941Z,101055.22
2023-01-06T08:46:53.459Z,101051.72
2023-01-06T08:49:19.893Z,101062.25
2023-01-06T08:51:46.391Z,101058.75
2023-01-06T08:54:14.490Z,101065.75
2023-01-06T08:56:43.466Z,101075.28
2023-01-06T08:59:14.955Z,101077.03
2023-01-06T09:01:42.267Z,101084.91
2023-01-06T09:04:10.500Z,101087.47
2023-01-06T09:06:37.337Z,101097.06
2023-01-06T09:09:05.958Z,101087.47
2023-01-06T09:11:32.496Z,101090.03
2023-01-06T09:13:59.003Z,101085.72
2023-01-06T09:16:25.489Z,101093.59
2023-01-06T09:18:52.013Z,101098.84
2023-01-06T09:21:20.811Z,101097.09
2023-01-06T09:23:48.708Z,101088.38
2023-01-06T09:26:16.777Z,101087.50
2023-01-06T09:28:43.559Z,101096.28
2023-01-06T09:31:10.590Z,101091.03
2023-01-06T09:33:37.272Z,101092.78
2023-01-06T09:36:04.012Z,101098.00
2023-01-06T09:38:30.520Z,101100.59
2023-01-06T09:41:04.407Z,101104.09
2023-01-06T09:43:48.159Z,101118.09
2023-01-06T09:46:19.192Z,101119.88
2023-01-06T09:48:59.408Z,101119.91
2023-01-06T09:51:29.138Z,101123.47
2023-01-06T09:54:15.468Z,101120.00
2023-01-06T09:56:46.322Z,101120.00
2023-01-06T09:59:24.974Z,101117.34
2023-01-06T10:01:52.079Z,101121.69
2023-01-06T10:04:27.796Z,101122.53
2023-01-06T10:07:15.404Z,101116.41
2023-01-06T10:09:52.281Z,101121.72
2023-01-06T10:12:33.246Z,101133.16
2023-01-06T10:15:18.474Z,101135.81
2023-01-06T10:18:06.788Z,101139.31
2023-01-06T10:20:51.845Z,101134.09
2023-01-06T10:23:32.889Z,101147.19
2023-01-06T10:26:05.382Z,101141.09
2023-01-06T10:28:38.219Z,101142.84
2023-01-06T10:31:15.899Z,101142.84
2023-01-06T10:33:54.015Z,101130.66
2023-01-06T10:36:42.742Z,101133.28
2023-01-06T10:39:22.342Z,101132.41
2023-01-06T10:42:37.074Z,101133.28
2023-01-06T10:45:03.739Z,101142.84
2023-01-06T10:47:33.188Z,101136.72
2023-01-06T10:50:00.669Z,101135.88
2023-01-06T10:52:27.648Z,101132.34
2023-01-06T10:54:59.591Z,101127.09
2023-01-06T10:57:32.201Z,101130.56
2023-01-06T11:00:12.098Z,101120.97
2023-01-06T11:02:48.277Z,101118.34
2023-01-06T11:05:20.334Z,101115.69
2023-01-06T11:07:57.546Z,101132.25
2023-01-06T11:10:36.088Z,101131.34
2023-01-06T11:13:03.804Z,101132.19
2023-01-06T11:15:41.903Z,101122.63
2023-01-06T11:18:37.857Z,101126.06
2023-01-06T11:21:11.810Z,101122.53
2023-01-06T11:23:41.336Z,101120.75
2023-01-06T11:26:13.961Z,101119.88
2023-01-06T11:28:42.477Z,101128.59
2023-01-06T11:31:10.927Z,101122.47
2023-01-06T11:33:47.110Z,101124.22
2023-01-06T11:36:14.958Z,101117.25
2023-01-06T11:38:46.956Z,101117.22
2023-01-06T11:41:30.906Z,101111.06
2023-01-06T11:44:06.046Z,101111.84
2023-01-06T11:46:32.567Z,101110.06
2023-01-06T11:49:06.881Z,101104.78
2023-01-06T11:51:47.443Z,101110.03
2023-01-06T11:54:32.352Z,101110.88
2023-01-06T11:57:09.128Z,101107.34
2023-01-06T11:59:48.321Z,101102.88
2023-01-06T12:02:24.584Z,101109.81
2023-01-06T12:04:53.372Z,101108.91
2023-01-06T12:07:43.173Z,101103.59
2023-01-06T12:10:18.411Z,101096.53
2023-01-06T12:12:44.992Z,101105.16
2023-01-06T12:15:13.635Z,101107.66
2023-01-06T12:17:50.991Z,101099.78
2023-01-06T12:20:45.415Z,101107.53
2023-01-06T12:23:19.329Z,101099.63
2023-01-06T12:25:49.003Z,101103.88
2023-01-06T12:28:28.843Z,101110.81
2023-01-06T12:31:06.143Z,101110.03
2023-01-06T12:33:45.080Z,101097.88
2023-01-06T12:36:35.420Z,101103.19
2023-01-06T12:39:12.089Z,101101.53
2023-01-06T12:41:50.994Z,101104.16
2023-01-06T12:44:43.051Z,101103.31
2023-01-06T12:47:25.676Z,101104.25
2023-01-06T12:50:15.129Z,101104.28
2023-01-06T12:52:51.562Z,101105.16
2023-01-06T12:55:33.647Z,101109.59
2023-01-06T12:58:25.028Z,101103.56
2023-01-06T13:00:57.860Z,101111.50
2023-01-06T13:03:48.834Z,101106.22
2023-01-06T13:06:31.602Z,101104.41
2023-01-06T13:09:06.190Z,101109.63
2023-01-06T13:12:08.406Z,101111.44
2023-01-06T13:14:42.539Z,101101.88
2023-01-06T13:17:24.775Z,101104.53
2023-01-06T13:19:54.501Z,101107.19
2023-01-06T13:22:50.744Z,101108.97
2023-01-06T13:25:27.698Z,101102.03
2023-01-06T13:28:03.463Z,101101.22
2023-01-06T13:30:51.980Z,101096.03
2023-01-06T13:33:46.584Z,101094.25
2023-01-06T13:36:25.231Z,101096.88
2023-01-06T13:39:00.145Z,101083.78
2023-01-06T13:41:32.182Z,101089.91
2023-01-06T13:44:00.710Z,101084.63
2023-01-06T13:46:30.358Z,101085.50
2023-01-06T13:49:04.041Z,101089.00
2023-01-06T13:51:40.741Z,101083.75
2023-01-06T13:54:07.283Z,101091.50
2023-01-06T13:56:35.727Z,101087.09
2023-01-06T13:59:22.301Z,101087.09
2023-01-06T14:01:49.628Z,101087.97
2023-01-06T14:04:39.507Z,101092.41
2023-01-06T14:07:06.039Z,101088.91
2023-01-06T14:09:38.651Z,101095.03
2023-01-06T14:12:21.206Z,101096.78
2023-01-06T14:14:56.995Z,101094.16
2023-01-06T14:17:35.545Z,101106.38
2023-01-06T14:20:02.271Z,101103.75
2023-01-06T14:22:29.758Z,101108.13
2023-01-06T14:24:59.991Z,101112.47
2023-01-06T14:27:48.254Z,101104.63
2023-01-06T14:30:30.666Z,101101.16
2023-01-06T14:33:18.866Z,101091.53
2023-01-06T14:35:47.205Z,101102.88
2023-01-06T14:38:19.833Z,101104.66
2023-01-06T14:41:18.836Z,101096.88
2023-01-06T14:43:56.556Z,101090.78
2023-01-06T14:46:27.850Z,101106.50
2023-01-06T14:49:03.414Z,101099.50
2023-01-06T14:51:31.421Z,101109.97
2023-01-06T14:54:24.008Z,101104.75
2023-01-06T14:56:59.193Z,101096.88
2023-01-06T14:59:26.474Z,101096.91
2023-01-06T15:02:02.399Z,101102.16
2023-01-06T15:04:34.853Z,101103.94
2023-01-06T15:07:17.899Z,101103.13
2023-01-06T15:09:49.887Z,101099.63
2023-01-06T15:12:30.992Z,101092.66
2023-01-06T15:15:14.211Z,101097.88
2023-01-06T15:17:40.919Z,101096.22
2023-01-06T15:20:13.403Z,101098.00
2023-01-06T15:22:40.291Z,101092.78
2023-01-06T15:25:16.646Z,101084.94
2023-01-06T15:27:48.355Z,101090.19
2023-01-06T15:30:18.177Z,101087.59
2023-01-06T15:32:46.332Z,101089.34
2023-01-06T15:35:17.945Z,101093.72
2023-01-06T15:37:46.505Z,101085.88
2023-01-06T15:40:21.409Z,101083.25
2023-01-06T15:42:48.490Z,101091.97
2023-01-06T15:45:55.631Z,101083.25
2023-01-06T15:48:30.924Z,101085.00
2023-01-06T15:50:57.454Z,101091.97
2023-01-06T15:53:32.064Z,101098.09
2023-01-06T15:56:00.836Z,101097.22
2023-01-06T15:58:36.808Z,101104.22
2023-01-06T16:01:11.609Z,101099.00
2023-01-06T16:03:39.519Z,101108.63
2023-01-06T16:06:12.417Z,101097.28
2023-01-06T16:08:40.928Z,101099.91
2023-01-06T16:11:16.580Z,101104.25
2023-01-06T16:13:49.211Z,101111.22
2023-01-06T16:16:15.719Z,101098.97
2023-01-06T16:18:44.240Z,101102.50
2023-01-06T16:21:24.246Z,101104.25
2023-01-06T16:23:54.347Z,101104.25
2023-01-06T16:26:24.881Z,101099.91
2023-01-06T16:28:54.133Z,101093.78
2023-01-06T16:31:33.123Z,101095.56
2023-01-06T16:34:21.486Z,101106.03
2023-01-06T16:36:54.180Z,101106.94
2023-01-06T16:39:20.650Z,101112.16
2023-01-06T16:41:59.015Z,101113.88
2023-01-06T16:44:34.488Z,101099.94
2023-01-06T16:47:02.111Z,101106.91
2023-01-06T16:49:30.586Z,101109.56
2023-01-06T16:51:57.228Z,101117.41
2023-01-06T16:54:23.732Z,101122.66
2023-01-06T16:56:52.058Z,101120.00
2023-01-06T16:59:20.050Z,101124.38
2023-01-06T17:01:47.983Z,101123.50
2023-01-06T17:04:15.401Z,101122.66
2023-01-06T17:06:44.324Z,101122.63
2023-01-06T17:09:19.724Z,101121.75
2023-01-06T17:11:47.635Z,101120.03
2023-01-06T17:14:16.860Z,101113.03
2023-01-06T17:16:43.674Z,101111.31
2023-01-06T17:19:23.258Z,101111.34
2023-01-06T17:21:52.713Z,101115.72
2023-01-06T17:24:25.402Z,101117.47
2023-01-06T17:27:00.130Z,101114.00
2023-01-06T17:29:29.818Z,101121.84
2023-01-06T17:31:58.520Z,101124.47
2023-01-06T17:34:31.744Z,101125.31
2023-01-06T17:37:12.961Z,101129.69
2023-01-06T17:39:41.556Z,101128.81
2023-01-06T17:42:07.954Z,101129.69
2023-01-06T17:44:41.223Z,101122.72
2023-01-06T17:48:00.361Z,101117.47
2023-01-06T17:50:31.135Z,101124.47
2023-01-06T17:53:52.681Z,101124.50
2023-01-06T17:56:21.774Z,101121.88
2023-01-06T17:58:48.420Z,101112.31
2023-01-06T18:01:27.149Z,101110.56
2023-01-06T18:03:56.263Z,101110.56
2023-01-06T18:06:38.979Z,101107.94
2023-01-06T18:09:05.346Z,101112.31
2023-01-06T18:11:39.725Z,101108.84
2023-01-06T18:14:31.153Z,101108.84
2023-01-06T18:16:59.715Z,101116.66
2023-01-06T18:19:33.925Z,101112.31
2023-01-06T18:22:09.835Z,101102.75
2023-01-06T18:24:38.829Z,101108.03
2023-01-06T18:27:27.211Z,101107.13
2023-01-06T18:30:00.065Z,101104.50
2023-01-06T18:32:36.280Z,101095.78
2023-01-06T18:35:18.419Z,101093.16
2023-01-06T18:37:45.177Z,101107.97
2023-01-06T18:40:31.633Z,101109.72
2023-01-06T18:42:58.689Z,101112.31
2023-01-06T18:45:36.445Z,101107.94
2023-01-06T18:48:17.771Z,101106.19
2023-01-06T18:50:46.518Z,101109.69
2023-01-06T18:53:13.165Z,101114.06
2023-01-06T18:55:45.334Z,101112.31
2023-01-06T18:58:11.681Z,101109.72
2023-01-06T19:00:45.740Z,101107.13
2023-01-06T19:03:15.773Z,101108.00
2023-01-06T19:05:42.898Z,101104.50
2023-01-06T19:08:26.871Z,101114.09
2023-01-06T19:10:53.303Z,101116.72
2023-01-06T19:13:24.162Z,101113.22
2023-01-06T19:15:50.815Z,101107.97
2023-01-06T19:18:18.369Z,101107.13
2023-01-06T19:20:45.974Z,101104.50
2023-01-06T19:23:22.831Z,101112.31
2023-01-06T19:26:02.557Z,101107.09
2023-01-06T19:28:34.158Z,101102.72
2023-01-06T19:31:02.114Z,101105.34
2023-01-06T19:33:44.603Z,101107.94
2023-01-06T19:36:31.344Z,101108.81
2023-01-06T19:39:01.687Z,101095.75
2023-01-06T19:41:32.955Z,101091.41
2023-01-06T19:44:11.972Z,101094.03
2023-01-06T19:46:41.245Z,101095.78
2023-01-06T19:49:13.131Z,101099.28
2023-01-06T19:51:39.763Z,101097.50
2023-01-06T19:54:18.333Z,101093.16
2023-01-06T19:56:44.770Z,101092.28
2023-01-06T19:59:25.211Z,101097.50
2023-01-06T20:02:19.368Z,101102.75
2023-01-06T20:04:45.914Z,101098.41
2023-01-06T20:07:12.410Z,101094.94
2023-01-06T20:09:38.886Z,101093.22
2023-01-06T20:12:05.466Z,101098.44
2023-01-06T20:14:31.897Z,101097.56
2023-01-06T20:16:59.436Z,101087.09
2023-01-06T20:19:26.005Z,101094.94
2023-01-06T20:21:52.429Z,101094.94
2023-01-06T20:24:18.864Z,101094.97
2023-01-06T20:26:45.369Z,101094.97
2023-01-06T20:29:11.851Z,101092.34
2023-01-06T20:31:38.522Z,101092.38
2023-01-06T20:34:05.141Z,101090.63
2023-01-06T20:36:31.626Z,101084.56
2023-01-06T20:38:58.122Z,101093.25
2023-01-06T20:41:24.572Z,101088.91
2023-01-06T20:43:51.173Z,101085.44
2023-01-06T20:46:17.682Z,101088.06
2023-01-06T20:48:44.238Z,101089.81
2023-01-06T20:51:10.731Z,101087.19
2023-01-06T20:53:37.361Z,101095.06
2023-01-06T20:56:04.044Z,101085.44
2023-01-06T20:58:30.687Z,101096.78
2023-01-06T21:00:57.208Z,101095.91
2023-01-06T21:03:23.734Z,101097.66
2023-01-06T21:05:50.236Z,101090.69
2023-01-06T21:08:16.696Z,101086.34
2023-01-06T21:10:43.121Z,101095.94
2023-01-06T21:13:09.864Z,101095.03
2023-01-06T21:15:36.411Z,101081.13
2023-01-06T21:18:02.866Z,101086.34
2023-01-06T21:20:29.751Z,101086.34
2023-01-06T21:22:56.219Z,101083.69
2023-01-06T21:25:24.676Z,101077.63
2023-01-06T21:27:51.195Z,101080.22
2023-01-06T21:30:18.156Z,101086.34
2023-01-06T21:32:44.638Z,101081.13
2023-01-06T21:35:11.245Z,101078.50
2023-01-06T21:37:37.736Z,101087.19
2023-01-06T21:40:08.226Z,101087.19
2023-01-06T21:42:53.898Z,101088.06
2023-01-06T21:45:20.597Z,101088.94
2023-01-06T21:47:47.024Z,101084.59
2023-01-06T21:50:13.641Z,101092.44
2023-01-06T21:52:40.238Z,101095.03
2023-01-06T21:55:07.371Z,101085.44
2023-01-06T21:57:33.898Z,101080.22
2023-01-06T22:00:00.330Z,101083.69
2023-01-06T22:02:26.898Z,101081.97
2023-01-06T22:04:53.492Z,101079.38
2023-01-06T22:07:21.204Z,101088.06
2023-01-06T22:09:48.574Z,101080.22
2023-01-06T22:12:17.543Z,101085.47
2023-01-06T22:14:45.063Z,101088.06
2023-01-06T22:17:12.600Z,101089.81
2023-01-06T22:19:39.896Z,101082.84
2023-01-06T22:22:06.859Z,101078.47
2023-01-06T22:24:35.499Z,101079.34
2023-01-06T22:27:02.200Z,101087.19
2023-01-06T22:29:28.650Z,101086.34
2023-01-06T22:32:00.892Z,101075.88
2023-01-06T22:34:27.625Z,101081.09
2023-01-06T22:36:54.151Z,101077.59
2023-01-06T22:39:20.582Z,101088.94
2023-01-06T22:41:47.382Z,101086.31
2023-01-06T22:44:14.137Z,101091.53
2023-01-06T22:46:40.658Z,101083.72
2023-01-06T22:49:07.196Z,101081.97
2023-01-06T22:51:33.890Z,101081.97
2023-01-06T22:54:00.332Z,101082.84
2023-01-06T22:56:26.774Z,101088.06
2023-01-06T22:58:53.255Z,101088.06
2023-01-06T23:01:19.837Z,101085.47
2023-01-06T23:03:46.342Z,101088.94
2023-01-06T23:06:14.909Z,101089.81
2023-01-06T23:08:58.542Z,101093.28
2023-01-06T23:11:27.880Z,101092.44
2023-01-06T23:13:56.718Z,101096.81
2023-01-06T23:16:26.120Z,101092.50
2023-01-06T23:18:53.084Z,101089.00
2023-01-06T23:21:22.573Z,101091.63
2023-01-06T23:23:50.655Z,101091.59
2023-01-06T23:26:19.664Z,101089.00
2023-01-06T23:28:46.512Z,101091.59
2023-01-06T23:31:22.040Z,101081.13
2023-01-06T23:33:51.307Z,101072.38
2023-01-06T23:36:19.842Z,101068.88
2023-01-06T23:38:47.015Z,101074.13
2023-01-06T23:41:19.025Z,101071.50
2023-01-06T23:43:46.549Z,101068.88
2023-01-06T23:46:16.111Z,101071.50
2023-01-06T23:48:43.380Z,101066.28
2023-01-06T23:51:11.047Z,101067.16
2023-01-06T23:53:38.713Z,101068.91
2023-01-06T23:56:08.189Z,101067.16
2023-01-06T23:58:37.616Z,101066.28
